sensor_id;sensor_type;location;lat;lon;timestamp;P1;durP1;ratioP1;P2;durP2;ratioP2
50291;SDS011;36190;54.980;73.388;2023-02-26T00:01:00;12.80;;;4.50;;
50291;SDS011;36190;54.980;73.388;2023-02-26T00:03:28;12.73;;;4.80;;
50291;SDS011;36190;54.980;73.388;2023-02-26T00:05:58;14.13;;;4.70;;
50291;SDS011;36190;54.980;73.388;2023-02-26T00:08:26;15.60;;;5.13;;
50291;SDS011;36190;54.980;73.388;2023-02-26T00:10:55;13.90;;;4.80;;
50291;SDS011;36190;54.980;73.388;2023-02-26T00:13:25;12.37;;;4.67;;
50291;SDS011;36190;54.980;73.388;2023-02-26T00:15:53;13.20;;;5.30;;
50291;SDS011;36190;54.980;73.388;2023-02-26T00:18:26;13.90;;;5.27;;
50291;SDS011;36190;54.980;73.388;2023-02-26T00:20:54;17.07;;;5.00;;
50291;SDS011;36190;54.980;73.388;2023-02-26T00:23:22;15.47;;;5.63;;
50291;SDS011;36190;54.980;73.388;2023-02-26T00:25:50;13.83;;;5.17;;
50291;SDS011;36190;54.980;73.388;2023-02-26T00:28:18;15.17;;;5.27;;
50291;SDS011;36190;54.980;73.388;2023-02-26T00:30:46;17.50;;;5.33;;
50291;SDS011;36190;54.980;73.388;2023-02-26T00:33:14;17.03;;;5.67;;
50291;SDS011;36190;54.980;73.388;2023-02-26T00:35:43;14.90;;;6.13;;
50291;SDS011;36190;54.980;73.388;2023-02-26T00:38:11;14.40;;;5.53;;
50291;SDS011;36190;54.980;73.388;2023-02-26T00:40:43;11.17;;;4.60;;
50291;SDS011;36190;54.980;73.388;2023-02-26T00:43:13;16.83;;;4.77;;
50291;SDS011;36190;54.980;73.388;2023-02-26T00:45:43;15.43;;;4.53;;
50291;SDS011;36190;54.980;73.388;2023-02-26T00:48:22;13.70;;;5.17;;
50291;SDS011;36190;54.980;73.388;2023-02-26T00:51:04;15.88;;;5.38;;
50291;SDS011;36190;54.980;73.388;2023-02-26T00:53:39;15.80;;;5.63;;
50291;SDS011;36190;54.980;73.388;2023-02-26T00:56:12;14.43;;;4.43;;
50291;SDS011;36190;54.980;73.388;2023-02-26T00:58:40;17.97;;;5.43;;
50291;SDS011;36190;54.980;73.388;2023-02-26T01:01:07;15.27;;;5.20;;
50291;SDS011;36190;54.980;73.388;2023-02-26T01:03:35;14.10;;;4.53;;
50291;SDS011;36190;54.980;73.388;2023-02-26T01:06:08;16.63;;;6.10;;
50291;SDS011;36190;54.980;73.388;2023-02-26T01:08:38;15.73;;;5.63;;
50291;SDS011;36190;54.980;73.388;2023-02-26T01:11:12;16.70;;;5.80;;
50291;SDS011;36190;54.980;73.388;2023-02-26T01:13:40;18.17;;;6.07;;
50291;SDS011;36190;54.980;73.388;2023-02-26T01:16:08;15.50;;;5.70;;
50291;SDS011;36190;54.980;73.388;2023-02-26T01:18:45;23.13;;;6.67;;
50291;SDS011;36190;54.980;73.388;2023-02-26T01:21:18;12.77;;;4.70;;
50291;SDS011;36190;54.980;73.388;2023-02-26T01:23:52;18.33;;;6.63;;
50291;SDS011;36190;54.980;73.388;2023-02-26T01:26:21;14.20;;;5.30;;
50291;SDS011;36190;54.980;73.388;2023-02-26T01:28:51;17.00;;;6.80;;
50291;SDS011;36190;54.980;73.388;2023-02-26T01:31:24;14.47;;;5.93;;
50291;SDS011;36190;54.980;73.388;2023-02-26T01:34:01;15.70;;;5.33;;
50291;SDS011;36190;54.980;73.388;2023-02-26T01:36:35;21.23;;;6.73;;
50291;SDS011;36190;54.980;73.388;2023-02-26T01:39:11;18.90;;;6.30;;
50291;SDS011;36190;54.980;73.388;2023-02-26T01:41:46;18.97;;;6.10;;
50291;SDS011;36190;54.980;73.388;2023-02-26T01:44:18;15.87;;;6.10;;
50291;SDS011;36190;54.980;73.388;2023-02-26T01:49:43;19.93;;;6.13;;
50291;SDS011;36190;54.980;73.388;2023-02-26T01:55:20;9.47;;;4.03;;
50291;SDS011;36190;54.980;73.388;2023-02-26T01:57:51;22.00;;;6.68;;
50291;SDS011;36190;54.980;73.388;2023-02-26T02:00:23;22.00;;;6.97;;
50291;SDS011;36190;54.980;73.388;2023-02-26T02:02:50;24.67;;;7.37;;
50291;SDS011;36190;54.980;73.388;2023-02-26T02:05:20;18.70;;;6.63;;
50291;SDS011;36190;54.980;73.388;2023-02-26T02:07:50;19.23;;;7.13;;
50291;SDS011;36190;54.980;73.388;2023-02-26T02:10:19;22.63;;;7.30;;
50291;SDS011;36190;54.980;73.388;2023-02-26T02:12:49;16.20;;;5.37;;
50291;SDS011;36190;54.980;73.388;2023-02-26T02:15:24;18.27;;;6.13;;
50291;SDS011;36190;54.980;73.388;2023-02-26T02:18:00;16.47;;;5.27;;
50291;SDS011;36190;54.980;73.388;2023-02-26T02:23:56;17.93;;;5.70;;
50291;SDS011;36190;54.980;73.388;2023-02-26T02:26:37;15.57;;;4.93;;
50291;SDS011;36190;54.980;73.388;2023-02-26T02:29:23;16.23;;;6.00;;
50291;SDS011;36190;54.980;73.388;2023-02-26T02:32:13;18.53;;;7.03;;
50291;SDS011;36190;54.980;73.388;2023-02-26T02:34:44;18.70;;;8.20;;
50291;SDS011;36190;54.980;73.388;2023-02-26T02:37:15;15.90;;;5.97;;
50291;SDS011;36190;54.980;73.388;2023-02-26T02:39:48;18.97;;;6.53;;
50291;SDS011;36190;54.980;73.388;2023-02-26T02:42:22;21.63;;;6.72;;
50291;SDS011;36190;54.980;73.388;2023-02-26T02:47:25;19.10;;;7.60;;
50291;SDS011;36190;54.980;73.388;2023-02-26T02:49:57;17.67;;;6.47;;
50291;SDS011;36190;54.980;73.388;2023-02-26T02:52:29;20.63;;;6.55;;
50291;SDS011;36190;54.980;73.388;2023-02-26T02:55:02;16.25;;;6.20;;
50291;SDS011;36190;54.980;73.388;2023-02-26T02:57:34;16.03;;;5.53;;
50291;SDS011;36190;54.980;73.388;2023-02-26T03:00:06;17.60;;;6.17;;
50291;SDS011;36190;54.980;73.388;2023-02-26T03:02:38;17.80;;;7.13;;
50291;SDS011;36190;54.980;73.388;2023-02-26T03:05:09;17.63;;;6.57;;
50291;SDS011;36190;54.980;73.388;2023-02-26T03:07:38;18.20;;;6.97;;
50291;SDS011;36190;54.980;73.388;2023-02-26T03:10:11;19.67;;;6.53;;
50291;SDS011;36190;54.980;73.388;2023-02-26T03:12:38;19.17;;;7.73;;
50291;SDS011;36190;54.980;73.388;2023-02-26T03:15:06;17.90;;;6.70;;
50291;SDS011;36190;54.980;73.388;2023-02-26T03:17:35;17.90;;;8.03;;
50291;SDS011;36190;54.980;73.388;2023-02-26T03:20:13;18.93;;;6.93;;
50291;SDS011;36190;54.980;73.388;2023-02-26T03:22:50;25.43;;;7.10;;
50291;SDS011;36190;54.980;73.388;2023-02-26T03:25:24;16.40;;;5.87;;
50291;SDS011;36190;54.980;73.388;2023-02-26T03:27:56;18.70;;;7.00;;
50291;SDS011;36190;54.980;73.388;2023-02-26T03:30:32;17.37;;;6.90;;
50291;SDS011;36190;54.980;73.388;2023-02-26T03:33:08;18.17;;;5.83;;
50291;SDS011;36190;54.980;73.388;2023-02-26T03:35:43;19.27;;;6.50;;
50291;SDS011;36190;54.980;73.388;2023-02-26T03:38:16;18.93;;;6.40;;
50291;SDS011;36190;54.980;73.388;2023-02-26T03:40:51;19.63;;;6.63;;
50291;SDS011;36190;54.980;73.388;2023-02-26T03:43:24;19.60;;;6.97;;
50291;SDS011;36190;54.980;73.388;2023-02-26T03:45:57;17.77;;;6.60;;
50291;SDS011;36190;54.980;73.388;2023-02-26T03:48:29;21.53;;;7.47;;
50291;SDS011;36190;54.980;73.388;2023-02-26T03:51:01;23.20;;;8.60;;
50291;SDS011;36190;54.980;73.388;2023-02-26T03:53:33;19.93;;;8.17;;
50291;SDS011;36190;54.980;73.388;2023-02-26T03:56:06;19.23;;;7.87;;
50291;SDS011;36190;54.980;73.388;2023-02-26T03:58:41;16.63;;;6.47;;
50291;SDS011;36190;54.980;73.388;2023-02-26T04:01:10;17.07;;;6.47;;
50291;SDS011;36190;54.980;73.388;2023-02-26T04:03:45;16.13;;;6.63;;
50291;SDS011;36190;54.980;73.388;2023-02-26T04:06:16;16.77;;;6.50;;
50291;SDS011;36190;54.980;73.388;2023-02-26T04:08:44;16.20;;;5.97;;
50291;SDS011;36190;54.980;73.388;2023-02-26T04:11:14;15.93;;;6.00;;
50291;SDS011;36190;54.980;73.388;2023-02-26T04:13:44;15.10;;;5.93;;
50291;SDS011;36190;54.980;73.388;2023-02-26T04:16:12;18.90;;;6.70;;
50291;SDS011;36190;54.980;73.388;2023-02-26T04:18:40;16.43;;;6.60;;
50291;SDS011;36190;54.980;73.388;2023-02-26T04:21:11;18.97;;;6.37;;
50291;SDS011;36190;54.980;73.388;2023-02-26T04:23:39;17.17;;;7.03;;
50291;SDS011;36190;54.980;73.388;2023-02-26T04:26:06;19.17;;;7.90;;
50291;SDS011;36190;54.980;73.388;2023-02-26T04:28:34;18.07;;;6.57;;
50291;SDS011;36190;54.980;73.388;2023-02-26T04:31:02;19.73;;;7.10;;
50291;SDS011;36190;54.980;73.388;2023-02-26T04:33:30;18.17;;;7.07;;
50291;SDS011;36190;54.980;73.388;2023-02-26T04:35:58;17.40;;;6.60;;
50291;SDS011;36190;54.980;73.388;2023-02-26T04:38:27;16.63;;;7.17;;
50291;SDS011;36190;54.980;73.388;2023-02-26T04:40:55;17.43;;;7.03;;
50291;SDS011;36190;54.980;73.388;2023-02-26T04:43:22;20.43;;;7.37;;
50291;SDS011;36190;54.980;73.388;2023-02-26T04:45:50;15.60;;;6.73;;
50291;SDS011;36190;54.980;73.388;2023-02-26T04:48:17;18.83;;;6.97;;
50291;SDS011;36190;54.980;73.388;2023-02-26T04:50:45;21.20;;;8.37;;
50291;SDS011;36190;54.980;73.388;2023-02-26T04:53:14;19.83;;;8.07;;
50291;SDS011;36190;54.980;73.388;2023-02-26T04:55:46;26.40;;;9.63;;
50291;SDS011;36190;54.980;73.388;2023-02-26T04:58:14;20.43;;;7.83;;
50291;SDS011;36190;54.980;73.388;2023-02-26T05:00:42;19.87;;;8.07;;
50291;SDS011;36190;54.980;73.388;2023-02-26T05:03:09;20.57;;;8.23;;
50291;SDS011;36190;54.980;73.388;2023-02-26T05:05:37;19.23;;;7.37;;
50291;SDS011;36190;54.980;73.388;2023-02-26T05:08:06;20.47;;;8.57;;
50291;SDS011;36190;54.980;73.388;2023-02-26T05:10:34;20.47;;;7.77;;
50291;SDS011;36190;54.980;73.388;2023-02-26T05:13:03;19.03;;;7.47;;
50291;SDS011;36190;54.980;73.388;2023-02-26T05:15:30;22.30;;;7.90;;
50291;SDS011;36190;54.980;73.388;2023-02-26T05:17:58;16.67;;;6.80;;
50291;SDS011;36190;54.980;73.388;2023-02-26T05:20:26;21.20;;;8.13;;
50291;SDS011;36190;54.980;73.388;2023-02-26T05:22:54;23.73;;;7.90;;
50291;SDS011;36190;54.980;73.388;2023-02-26T05:25:21;21.23;;;9.17;;
50291;SDS011;36190;54.980;73.388;2023-02-26T05:27:49;20.60;;;8.47;;
50291;SDS011;36190;54.980;73.388;2023-02-26T05:30:18;19.07;;;7.13;;
50291;SDS011;36190;54.980;73.388;2023-02-26T05:32:45;19.53;;;7.53;;
50291;SDS011;36190;54.980;73.388;2023-02-26T05:35:13;25.87;;;9.27;;
50291;SDS011;36190;54.980;73.388;2023-02-26T05:37:41;17.63;;;7.30;;
50291;SDS011;36190;54.980;73.388;2023-02-26T05:40:09;21.03;;;7.17;;
50291;SDS011;36190;54.980;73.388;2023-02-26T05:42:37;25.03;;;10.40;;
50291;SDS011;36190;54.980;73.388;2023-02-26T05:45:05;22.03;;;9.30;;
50291;SDS011;36190;54.980;73.388;2023-02-26T05:47:35;18.30;;;7.27;;
50291;SDS011;36190;54.980;73.388;2023-02-26T05:50:04;23.20;;;8.00;;
50291;SDS011;36190;54.980;73.388;2023-02-26T05:52:32;18.93;;;7.07;;
50291;SDS011;36190;54.980;73.388;2023-02-26T05:55:00;23.07;;;8.37;;
50291;SDS011;36190;54.980;73.388;2023-02-26T05:57:27;22.23;;;8.10;;
50291;SDS011;36190;54.980;73.388;2023-02-26T05:59:55;21.53;;;7.60;;
50291;SDS011;36190;54.980;73.388;2023-02-26T06:02:22;23.10;;;8.80;;
50291;SDS011;36190;54.980;73.388;2023-02-26T06:04:51;24.47;;;8.90;;
50291;SDS011;36190;54.980;73.388;2023-02-26T06:07:19;19.03;;;8.00;;
50291;SDS011;36190;54.980;73.388;2023-02-26T06:09:46;23.73;;;8.43;;
50291;SDS011;36190;54.980;73.388;2023-02-26T06:12:13;25.95;;;8.80;;
50291;SDS011;36190;54.980;73.388;2023-02-26T06:14:41;18.23;;;7.20;;
50291;SDS011;36190;54.980;73.388;2023-02-26T06:17:08;17.07;;;7.07;;
50291;SDS011;36190;54.980;73.388;2023-02-26T06:19:36;17.48;;;6.18;;
50291;SDS011;36190;54.980;73.388;2023-02-26T06:22:05;19.00;;;7.47;;
50291;SDS011;36190;54.980;73.388;2023-02-26T06:24:32;25.90;;;8.20;;
50291;SDS011;36190;54.980;73.388;2023-02-26T06:27:00;19.03;;;8.37;;
50291;SDS011;36190;54.980;73.388;2023-02-26T06:29:27;17.33;;;6.87;;
50291;SDS011;36190;54.980;73.388;2023-02-26T06:31:54;22.00;;;7.20;;
50291;SDS011;36190;54.980;73.388;2023-02-26T06:34:22;20.05;;;7.15;;
50291;SDS011;36190;54.980;73.388;2023-02-26T06:36:50;19.42;;;6.70;;
50291;SDS011;36190;54.980;73.388;2023-02-26T06:39:19;18.80;;;8.15;;
50291;SDS011;36190;54.980;73.388;2023-02-26T06:41:46;14.55;;;6.90;;
50291;SDS011;36190;54.980;73.388;2023-02-26T06:44:14;17.30;;;6.97;;
50291;SDS011;36190;54.980;73.388;2023-02-26T06:46:41;15.95;;;6.78;;
50291;SDS011;36190;54.980;73.388;2023-02-26T06:49:09;15.93;;;6.25;;
50291;SDS011;36190;54.980;73.388;2023-02-26T06:51:37;15.60;;;7.18;;
50291;SDS011;36190;54.980;73.388;2023-02-26T06:54:04;17.88;;;7.50;;
50291;SDS011;36190;54.980;73.388;2023-02-26T06:56:33;19.65;;;8.15;;
50291;SDS011;36190;54.980;73.388;2023-02-26T06:59:01;16.15;;;6.53;;
50291;SDS011;36190;54.980;73.388;2023-02-26T07:01:28;19.13;;;7.05;;
50291;SDS011;36190;54.980;73.388;2023-02-26T07:03:56;16.95;;;7.20;;
50291;SDS011;36190;54.980;73.388;2023-02-26T07:06:24;16.45;;;7.28;;
50291;SDS011;36190;54.980;73.388;2023-02-26T07:08:52;18.05;;;8.13;;
50291;SDS011;36190;54.980;73.388;2023-02-26T07:11:19;21.90;;;8.48;;
50291;SDS011;36190;54.980;73.388;2023-02-26T07:13:48;22.15;;;8.55;;
50291;SDS011;36190;54.980;73.388;2023-02-26T07:16:16;20.83;;;8.55;;
50291;SDS011;36190;54.980;73.388;2023-02-26T07:18:43;19.50;;;7.95;;
50291;SDS011;36190;54.980;73.388;2023-02-26T07:21:11;15.98;;;7.07;;
50291;SDS011;36190;54.980;73.388;2023-02-26T07:23:38;19.55;;;7.00;;
50291;SDS011;36190;54.980;73.388;2023-02-26T07:26:06;14.55;;;6.28;;
50291;SDS011;36190;54.980;73.388;2023-02-26T07:28:34;27.67;;;6.75;;
50291;SDS011;36190;54.980;73.388;2023-02-26T07:31:03;14.68;;;6.05;;
50291;SDS011;36190;54.980;73.388;2023-02-26T07:33:31;16.27;;;6.40;;
50291;SDS011;36190;54.980;73.388;2023-02-26T07:35:59;14.13;;;6.13;;
50291;SDS011;36190;54.980;73.388;2023-02-26T07:38:27;14.93;;;4.57;;
50291;SDS011;36190;54.980;73.388;2023-02-26T07:40:54;15.45;;;4.93;;
50291;SDS011;36190;54.980;73.388;2023-02-26T07:43:22;13.93;;;5.05;;
50291;SDS011;36190;54.980;73.388;2023-02-26T07:45:50;15.05;;;6.43;;
50291;SDS011;36190;54.980;73.388;2023-02-26T07:48:19;17.10;;;6.43;;
50291;SDS011;36190;54.980;73.388;2023-02-26T07:50:46;14.73;;;6.35;;
50291;SDS011;36190;54.980;73.388;2023-02-26T07:53:16;16.27;;;6.50;;
50291;SDS011;36190;54.980;73.388;2023-02-26T07:55:44;16.90;;;6.05;;
50291;SDS011;36190;54.980;73.388;2023-02-26T07:58:11;14.18;;;6.30;;
50291;SDS011;36190;54.980;73.388;2023-02-26T08:00:39;15.75;;;5.82;;
50291;SDS011;36190;54.980;73.388;2023-02-26T08:03:07;14.13;;;5.47;;
50291;SDS011;36190;54.980;73.388;2023-02-26T08:05:35;13.50;;;5.32;;
50291;SDS011;36190;54.980;73.388;2023-02-26T08:08:03;13.20;;;4.47;;
50291;SDS011;36190;54.980;73.388;2023-02-26T08:10:31;15.85;;;5.90;;
50291;SDS011;36190;54.980;73.388;2023-02-26T08:12:58;14.38;;;6.28;;
50291;SDS011;36190;54.980;73.388;2023-02-26T08:15:26;14.00;;;5.07;;
50291;SDS011;36190;54.980;73.388;2023-02-26T08:17:54;15.10;;;5.65;;
50291;SDS011;36190;54.980;73.388;2023-02-26T08:20:22;17.15;;;6.55;;
50291;SDS011;36190;54.980;73.388;2023-02-26T08:22:51;12.57;;;4.93;;
50291;SDS011;36190;54.980;73.388;2023-02-26T08:25:19;21.77;;;5.68;;
50291;SDS011;36190;54.980;73.388;2023-02-26T08:27:46;12.00;;;4.80;;
50291;SDS011;36190;54.980;73.388;2023-02-26T08:32:41;15.82;;;6.45;;
50291;SDS011;36190;54.980;73.388;2023-02-26T08:35:10;14.82;;;5.97;;
50291;SDS011;36190;54.980;73.388;2023-02-26T08:37:38;12.82;;;5.00;;
50291;SDS011;36190;54.980;73.388;2023-02-26T08:40:07;15.82;;;6.55;;
50291;SDS011;36190;54.980;73.388;2023-02-26T08:42:36;12.65;;;5.68;;
50291;SDS011;36190;54.980;73.388;2023-02-26T08:45:04;12.40;;;5.43;;
50291;SDS011;36190;54.980;73.388;2023-02-26T08:47:32;13.45;;;5.32;;
50291;SDS011;36190;54.980;73.388;2023-02-26T08:50:00;13.23;;;5.65;;
50291;SDS011;36190;54.980;73.388;2023-02-26T08:52:27;11.80;;;5.38;;
50291;SDS011;36190;54.980;73.388;2023-02-26T08:54:55;12.88;;;5.10;;
50291;SDS011;36190;54.980;73.388;2023-02-26T08:57:24;13.23;;;4.75;;
50291;SDS011;36190;54.980;73.388;2023-02-26T08:59:51;12.50;;;5.13;;
50291;SDS011;36190;54.980;73.388;2023-02-26T09:02:19;13.25;;;4.72;;
50291;SDS011;36190;54.980;73.388;2023-02-26T09:04:46;10.43;;;4.50;;
50291;SDS011;36190;54.980;73.388;2023-02-26T09:07:13;12.77;;;5.10;;
50291;SDS011;36190;54.980;73.388;2023-02-26T09:09:41;13.00;;;4.25;;
50291;SDS011;36190;54.980;73.388;2023-02-26T09:12:08;11.15;;;4.32;;
50291;SDS011;36190;54.980;73.388;2023-02-26T09:14:37;14.00;;;4.45;;
50291;SDS011;36190;54.980;73.388;2023-02-26T09:17:05;12.10;;;4.68;;
50291;SDS011;36190;54.980;73.388;2023-02-26T09:19:32;15.18;;;6.47;;
50291;SDS011;36190;54.980;73.388;2023-02-26T09:21:59;11.75;;;4.78;;
50291;SDS011;36190;54.980;73.388;2023-02-26T09:24:27;12.60;;;5.10;;
50291;SDS011;36190;54.980;73.388;2023-02-26T09:26:54;11.10;;;4.28;;
50291;SDS011;36190;54.980;73.388;2023-02-26T09:29:22;12.02;;;4.63;;
50291;SDS011;36190;54.980;73.388;2023-02-26T09:31:51;13.57;;;5.15;;
50291;SDS011;36190;54.980;73.388;2023-02-26T09:34:18;13.55;;;5.38;;
50291;SDS011;36190;54.980;73.388;2023-02-26T09:36:46;11.48;;;4.35;;
50291;SDS011;36190;54.980;73.388;2023-02-26T09:39:14;13.57;;;5.07;;
50291;SDS011;36190;54.980;73.388;2023-02-26T09:41:42;13.65;;;4.65;;
50291;SDS011;36190;54.980;73.388;2023-02-26T09:44:14;13.25;;;4.45;;
50291;SDS011;36190;54.980;73.388;2023-02-26T09:46:49;10.90;;;4.25;;
50291;SDS011;36190;54.980;73.388;2023-02-26T09:49:36;11.90;;;4.80;;
50291;SDS011;36190;54.980;73.388;2023-02-26T09:52:16;9.80;;;4.07;;
50291;SDS011;36190;54.980;73.388;2023-02-26T09:54:48;11.05;;;3.97;;
50291;SDS011;36190;54.980;73.388;2023-02-26T09:57:21;9.13;;;3.35;;
50291;SDS011;36190;54.980;73.388;2023-02-26T09:59:55;9.48;;;3.42;;
50291;SDS011;36190;54.980;73.388;2023-02-26T10:02:28;12.20;;;4.00;;
50291;SDS011;36190;54.980;73.388;2023-02-26T10:05:07;13.40;;;4.18;;
50291;SDS011;36190;54.980;73.388;2023-02-26T10:07:44;12.43;;;4.03;;
50291;SDS011;36190;54.980;73.388;2023-02-26T10:10:21;13.63;;;5.07;;
50291;SDS011;36190;54.980;73.388;2023-02-26T10:12:56;14.27;;;5.03;;
50291;SDS011;36190;54.980;73.388;2023-02-26T10:15:26;12.02;;;4.63;;
50291;SDS011;36190;54.980;73.388;2023-02-26T10:18:03;12.50;;;4.80;;
50291;SDS011;36190;54.980;73.388;2023-02-26T10:20:38;10.02;;;4.53;;
50291;SDS011;36190;54.980;73.388;2023-02-26T10:23:15;10.70;;;4.15;;
50291;SDS011;36190;54.980;73.388;2023-02-26T10:25:48;9.32;;;3.67;;
50291;SDS011;36190;54.980;73.388;2023-02-26T10:28:26;9.65;;;3.75;;
50291;SDS011;36190;54.980;73.388;2023-02-26T10:31:02;10.35;;;3.42;;
50291;SDS011;36190;54.980;73.388;2023-02-26T10:33:37;14.00;;;3.60;;
50291;SDS011;36190;54.980;73.388;2023-02-26T10:36:14;15.20;;;4.40;;
50291;SDS011;36190;54.980;73.388;2023-02-26T10:38:46;11.90;;;4.40;;
50291;SDS011;36190;54.980;73.388;2023-02-26T10:41:18;11.65;;;4.40;;
50291;SDS011;36190;54.980;73.388;2023-02-26T10:43:50;10.90;;;4.28;;
50291;SDS011;36190;54.980;73.388;2023-02-26T10:46:24;11.93;;;4.43;;
50291;SDS011;36190;54.980;73.388;2023-02-26T10:49:07;13.77;;;4.57;;
50291;SDS011;36190;54.980;73.388;2023-02-26T10:51:47;10.45;;;4.47;;
50291;SDS011;36190;54.980;73.388;2023-02-26T10:54:18;11.95;;;4.07;;
50291;SDS011;36190;54.980;73.388;2023-02-26T10:56:50;12.25;;;4.65;;
50291;SDS011;36190;54.980;73.388;2023-02-26T10:59:17;12.85;;;5.13;;
50291;SDS011;36190;54.980;73.388;2023-02-26T11:01:45;10.32;;;4.32;;
50291;SDS011;36190;54.980;73.388;2023-02-26T11:04:16;10.13;;;3.83;;
50291;SDS011;36190;54.980;73.388;2023-02-26T11:06:48;9.98;;;4.00;;
50291;SDS011;36190;54.980;73.388;2023-02-26T11:09:19;11.50;;;4.63;;
50291;SDS011;36190;54.980;73.388;2023-02-26T11:11:51;12.32;;;4.32;;
50291;SDS011;36190;54.980;73.388;2023-02-26T11:14:20;11.45;;;4.22;;
50291;SDS011;36190;54.980;73.388;2023-02-26T11:16:49;11.20;;;5.13;;
50291;SDS011;36190;54.980;73.388;2023-02-26T11:19:22;12.10;;;3.47;;
50291;SDS011;36190;54.980;73.388;2023-02-26T11:21:53;12.30;;;4.13;;
50291;SDS011;36190;54.980;73.388;2023-02-26T11:24:25;10.05;;;3.85;;
50291;SDS011;36190;54.980;73.388;2023-02-26T11:26:57;9.23;;;3.70;;
50291;SDS011;36190;54.980;73.388;2023-02-26T11:29:31;9.65;;;3.78;;
50291;SDS011;36190;54.980;73.388;2023-02-26T11:32:02;13.13;;;4.03;;
50291;SDS011;36190;54.980;73.388;2023-02-26T11:34:32;15.02;;;4.40;;
50291;SDS011;36190;54.980;73.388;2023-02-26T11:37:02;9.25;;;3.65;;
50291;SDS011;36190;54.980;73.388;2023-02-26T11:39:32;9.90;;;3.88;;
50291;SDS011;36190;54.980;73.388;2023-02-26T11:42:02;10.55;;;4.03;;
50291;SDS011;36190;54.980;73.388;2023-02-26T11:44:33;10.77;;;3.95;;
50291;SDS011;36190;54.980;73.388;2023-02-26T11:47:04;12.32;;;4.40;;
50291;SDS011;36190;54.980;73.388;2023-02-26T11:49:39;12.98;;;4.05;;
50291;SDS011;36190;54.980;73.388;2023-02-26T11:52:17;13.38;;;3.63;;
50291;SDS011;36190;54.980;73.388;2023-02-26T11:54:48;9.82;;;3.53;;
50291;SDS011;36190;54.980;73.388;2023-02-26T11:57:22;10.85;;;3.40;;
50291;SDS011;36190;54.980;73.388;2023-02-26T11:59:52;10.05;;;3.97;;
50291;SDS011;36190;54.980;73.388;2023-02-26T12:02:21;11.60;;;3.60;;
50291;SDS011;36190;54.980;73.388;2023-02-26T12:04:54;9.98;;;3.35;;
50291;SDS011;36190;54.980;73.388;2023-02-26T12:09:53;9.15;;;3.83;;
50291;SDS011;36190;54.980;73.388;2023-02-26T12:12:28;9.20;;;3.55;;
50291;SDS011;36190;54.980;73.388;2023-02-26T12:15:08;9.98;;;3.67;;
50291;SDS011;36190;54.980;73.388;2023-02-26T12:17:53;10.00;;;3.83;;
50291;SDS011;36190;54.980;73.388;2023-02-26T12:20:42;13.35;;;4.07;;
50291;SDS011;36190;54.980;73.388;2023-02-26T12:23:29;10.88;;;4.18;;
50291;SDS011;36190;54.980;73.388;2023-02-26T12:26:20;10.95;;;3.83;;
50291;SDS011;36190;54.980;73.388;2023-02-26T12:29:02;11.40;;;4.65;;
50291;SDS011;36190;54.980;73.388;2023-02-26T12:31:55;8.88;;;3.35;;
50291;SDS011;36190;54.980;73.388;2023-02-26T12:37:34;11.30;;;4.20;;
50291;SDS011;36190;54.980;73.388;2023-02-26T12:40:16;13.70;;;3.90;;
50291;SDS011;36190;54.980;73.388;2023-02-26T12:42:59;10.15;;;3.97;;
50291;SDS011;36190;54.980;73.388;2023-02-26T12:45:43;9.85;;;3.53;;
50291;SDS011;36190;54.980;73.388;2023-02-26T12:48:41;8.85;;;3.92;;
50291;SDS011;36190;54.980;73.388;2023-02-26T12:51:32;12.07;;;4.50;;
50291;SDS011;36190;54.980;73.388;2023-02-26T12:54:19;9.00;;;3.40;;
50291;SDS011;36190;54.980;73.388;2023-02-26T13:03:16;15.18;;;4.30;;
50291;SDS011;36190;54.980;73.388;2023-02-26T13:06:16;12.43;;;4.65;;
50291;SDS011;36190;54.980;73.388;2023-02-26T13:09:13;13.25;;;4.35;;
50291;SDS011;36190;54.980;73.388;2023-02-26T13:11:54;10.30;;;3.33;;
50291;SDS011;36190;54.980;73.388;2023-02-26T13:14:32;11.57;;;4.07;;
50291;SDS011;36190;54.980;73.388;2023-02-26T13:17:12;12.32;;;4.65;;
50291;SDS011;36190;54.980;73.388;2023-02-26T13:19:51;10.93;;;3.92;;
50291;SDS011;36190;54.980;73.388;2023-02-26T13:22:23;10.68;;;4.15;;
50291;SDS011;36190;54.980;73.388;2023-02-26T13:24:57;12.10;;;4.82;;
50291;SDS011;36190;54.980;73.388;2023-02-26T13:27:30;10.32;;;3.65;;
50291;SDS011;36190;54.980;73.388;2023-02-26T13:30:04;11.50;;;5.10;;
50291;SDS011;36190;54.980;73.388;2023-02-26T13:32:42;9.88;;;4.15;;
50291;SDS011;36190;54.980;73.388;2023-02-26T13:35:18;11.88;;;4.53;;
50291;SDS011;36190;54.980;73.388;2023-02-26T13:37:48;11.63;;;4.30;;
50291;SDS011;36190;54.980;73.388;2023-02-26T13:40:29;15.05;;;4.65;;
50291;SDS011;36190;54.980;73.388;2023-02-26T13:43:20;8.93;;;3.85;;
50291;SDS011;36190;54.980;73.388;2023-02-26T13:46:01;11.90;;;4.32;;
50291;SDS011;36190;54.980;73.388;2023-02-26T13:48:40;11.38;;;4.25;;
50291;SDS011;36190;54.980;73.388;2023-02-26T13:51:28;13.80;;;5.07;;
50291;SDS011;36190;54.980;73.388;2023-02-26T13:54:00;11.00;;;4.35;;
50291;SDS011;36190;54.980;73.388;2023-02-26T13:56:46;9.98;;;4.35;;
50291;SDS011;36190;54.980;73.388;2023-02-26T13:59:35;12.50;;;4.57;;
50291;SDS011;36190;54.980;73.388;2023-02-26T14:08:26;14.57;;;5.15;;
50291;SDS011;36190;54.980;73.388;2023-02-26T14:11:24;11.57;;;4.90;;
50291;SDS011;36190;54.980;73.388;2023-02-26T14:14:15;10.15;;;4.10;;
50291;SDS011;36190;54.980;73.388;2023-02-26T14:16:48;7.93;;;3.03;;
50291;SDS011;36190;54.980;73.388;2023-02-26T14:19:24;14.00;;;4.90;;
50291;SDS011;36190;54.980;73.388;2023-02-26T14:21:54;11.45;;;4.80;;
50291;SDS011;36190;54.980;73.388;2023-02-26T14:24:32;14.32;;;4.13;;
50291;SDS011;36190;54.980;73.388;2023-02-26T14:30:00;13.40;;;4.78;;
50291;SDS011;36190;54.980;73.388;2023-02-26T14:32:44;10.93;;;4.22;;
50291;SDS011;36190;54.980;73.388;2023-02-26T14:35:15;13.10;;;4.65;;
50291;SDS011;36190;54.980;73.388;2023-02-26T14:37:45;12.77;;;4.57;;
50291;SDS011;36190;54.980;73.388;2023-02-26T14:40:19;12.48;;;4.25;;
50291;SDS011;36190;54.980;73.388;2023-02-26T14:42:51;13.80;;;5.30;;
50291;SDS011;36190;54.980;73.388;2023-02-26T14:45:29;16.38;;;4.93;;
50291;SDS011;36190;54.980;73.388;2023-02-26T14:47:59;12.85;;;4.82;;
50291;SDS011;36190;54.980;73.388;2023-02-26T14:50:30;14.52;;;4.68;;
50291;SDS011;36190;54.980;73.388;2023-02-26T14:53:15;12.80;;;5.65;;
50291;SDS011;36190;54.980;73.388;2023-02-26T14:56:07;15.57;;;5.80;;
50291;SDS011;36190;54.980;73.388;2023-02-26T14:58:46;20.65;;;6.10;;
50291;SDS011;36190;54.980;73.388;2023-02-26T15:01:33;14.13;;;5.13;;
50291;SDS011;36190;54.980;73.388;2023-02-26T15:04:16;14.63;;;5.88;;
50291;SDS011;36190;54.980;73.388;2023-02-26T15:06:56;15.98;;;5.28;;
50291;SDS011;36190;54.980;73.388;2023-02-26T15:09:37;17.23;;;5.30;;
50291;SDS011;36190;54.980;73.388;2023-02-26T15:12:20;14.50;;;6.07;;
50291;SDS011;36190;54.980;73.388;2023-02-26T15:18:08;13.80;;;5.22;;
50291;SDS011;36190;54.980;73.388;2023-02-26T15:20:49;12.77;;;5.53;;
50291;SDS011;36190;54.980;73.388;2023-02-26T15:23:28;16.55;;;6.00;;
50291;SDS011;36190;54.980;73.388;2023-02-26T15:26:03;15.27;;;5.22;;
50291;SDS011;36190;54.980;73.388;2023-02-26T15:28:33;17.30;;;4.88;;
50291;SDS011;36190;54.980;73.388;2023-02-26T15:31:04;13.90;;;5.70;;